Time;durP1;ratioP1;P1;durP2;ratioP2;P2;SDS_P1;SDS_P2;PMS_P1;PMS_P2;Temp;Humidity;BMP_temperature;BMP_pressure;BME280_temperature;BME280_humidity;BME280_pressure;Samples;Min_cycle;Max_cycle;Signal;HPM_P1;HPM_P2
2022/01/16 00:00:05;;;;;;;;;;;;;;;;;;6260634;23;19919;-96
2022/01/16 00:05:05;;;;;;;;;;;;;;;;;;6275253;22;19923;-95
2022/01/16 00:07:32;;;;;;;;;;;;;;;;;;6286645;22;19988;-96
2022/01/16 00:09:58;;;;;;;;;;;;;;;;;;6286802;22;19919;-96
2022/01/16 00:12:24;;;;;;;;;;;;;;;;;;6287098;22;19923;-96
2022/01/16 00:14:51;;;;;;;;;;;;;;;;;;6288282;22;19996;-96
2022/01/16 00:17:19;;;;;;;;;;;;;;;;;;6287561;22;20410;-96
2022/01/16 00:19:45;;;;;;;;;;;;;;;;;;6289081;22;19945;-96
2022/01/16 00:22:14;;;;;;;;;;;;;;;;;;6290063;22;19920;-96
2022/01/16 00:24:41;;;;;;;;;;;;;;;;;;6289855;22;19927;-96
2022/01/16 00:27:07;;;;;;;;;;;;;;;;;;6288122;22;19965;-96
2022/01/16 00:29:34;;;;;;;;;;;;;;;;;;6290153;22;19919;-96
2022/01/16 00:32:00;;;;;;;;;;;;;;;;;;6289823;22;19926;-96
2022/01/16 00:34:26;;;;;;;;;;;;;;;;;;6288087;22;20234;-96
2022/01/16 00:36:53;;;;;;;;;;;;;;;;;;6286881;22;19976;-96
2022/01/16 00:39:19;;;;;;;;;;;;;;;;;;6284914;22;20506;-96
2022/01/16 00:41:47;;;;;;;;;;;;;;;;;;6284921;22;19924;-94
2022/01/16 00:44:13;;;;;;;;;;;;;;;;;;6284634;22;19979;-94
2022/01/16 00:46:39;;;;;;;;;;;;;;;;;;6286869;22;19942;-95
2022/01/16 00:49:05;;;;;;;;;;;;;;;;;;6287620;22;19923;-95
2022/01/16 00:51:32;;;;;;;;;;;;;;;;;;6287193;22;19951;-94
2022/01/16 00:53:58;;;;;;;;;;;;;;;;;;6285438;22;19927;-94
2022/01/16 00:56:24;;;;;;;;;;;;;;;;;;6285346;22;19923;-95
2022/01/16 00:58:50;;;;;;;;;;;;;;;;;;6284567;22;19923;-95
2022/01/16 01:01:17;;;;;;;;;;;;;;;;;;6285689;22;19919;-94
2022/01/16 01:03:43;;;;;;;;;;;;;;;;;;6286332;22;19942;-96
2022/01/16 01:06:09;;;;;;;;;;;;;;;;;;6288060;22;19942;-96
2022/01/16 01:08:35;;;;;;;;;;;;;;;;;;6288049;22;19919;-96
2022/01/16 01:11:06;;;;;;;;;;;;;;;;;;6286503;22;19927;-95
2022/01/16 01:13:43;;;;;;;;;;;;;;;;;;6286581;22;19950;-96
2022/01/16 01:16:14;;;;;;;;;;;;;;;;;;6287272;22;19925;-96
2022/01/16 01:18:41;;;;;;;;;;;;;;;;;;6287005;22;19919;-95
2022/01/16 01:21:16;;;;;;;;;;;;;;;;;;6287410;22;19920;-96
2022/01/16 01:23:42;;;;;;;;;;;;;;;;;;6260093;22;19923;-96
2022/01/16 01:26:09;;;;;;;;;;;;;;;;;;6287676;22;19973;-96
2022/01/16 01:28:35;;;;;;;;;;;;;;;;;;6287418;22;19967;-96
2022/01/16 01:31:01;;;;;;;;;;;;;;;;;;6287238;22;19930;-96
2022/01/16 01:33:27;;;;;;;;;;;;;;;;;;6286076;22;19930;-95
2022/01/16 01:35:54;;;;;;;;;;;;;;;;;;6286254;22;19945;-96
2022/01/16 01:38:20;;;;;;;;;;;;;;;;;;6287499;22;19919;-96
2022/01/16 01:40:48;;;;;;;;;;;;;;;;;;6286582;22;19927;-96
2022/01/16 01:51:36;;;;;;;;;;;;;;;;;;6287641;22;19918;-96
2022/01/16 01:54:02;;;;;;;;;;;;;;;;;;6286706;22;19943;-96
2022/01/16 01:56:28;;;;;;;;;;;;;;;;;;6285469;22;19923;-96
2022/01/16 01:58:55;;;;;;;;;;;;;;;;;;6284759;22;19919;-95
2022/01/16 02:01:21;;;;;;;;;;;;;;;;;;6285370;22;19942;-96
2022/01/16 02:03:48;;;;;;;;;;;;;;;;;;6285548;22;19919;-96
2022/01/16 02:06:15;;;;;;;;;;;;;;;;;;6285427;22;19923;-96
2022/01/16 02:08:41;;;;;;;;;;;;;;;;;;6285195;22;19919;-96
2022/01/16 02:11:07;;;;;;;;;;;;;;;;;;6284339;22;20411;-96
2022/01/16 02:13:45;;;;;;;;;;;;;;;;;;6285312;22;19973;-96
2022/01/16 02:35:20;;;;;;;;;;;;;;;;;;6260492;22;19933;-95
2022/01/16 02:37:47;;;;;;;;;;;;;;;;;;6292467;22;19907;-95
2022/01/16 02:40:23;;;;;;;;;;;;;;;;;;6288353;22;19920;-96
2022/01/16 02:42:50;;;;;;;;;;;;;;;;;;6289717;22;19965;-95
2022/01/16 02:45:28;;;;;;;;;;;;;;;;;;6288052;22;19930;-95
2022/01/16 02:47:54;;;;;;;;;;;;;;;;;;6285267;22;20281;-94
2022/01/16 02:50:21;;;;;;;;;;;;;;;;;;6286157;22;19930;-94
2022/01/16 02:52:47;;;;;;;;;;;;;;;;;;6285487;22;19927;-94
2022/01/16 02:55:15;;;;;;;;;;;;;;;;;;6285886;22;20313;-95
2022/01/16 02:57:41;;;;;;;;;;;;;;;;;;6286684;22;19926;-95
2022/01/16 03:00:07;;;;;;;;;;;;;;;;;;6286708;22;20351;-95
2022/01/16 03:02:34;;;;;;;;;;;;;;;;;;6288751;22;19919;-94
2022/01/16 03:05:00;;;;;;;;;;;;;;;;;;6289073;22;19919;-95
2022/01/16 03:07:27;;;;;;;;;;;;;;;;;;6288494;22;19959;-96
2022/01/16 03:10:03;;;;;;;;;;;;;;;;;;6288770;22;19920;-96
2022/01/16 03:12:29;;;;;;;;;;;;;;;;;;6289937;22;19919;-96
2022/01/16 03:14:56;;;;;;;;;;;;;;;;;;6290902;22;20322;-95
2022/01/16 03:17:38;;;;;;;;;;;;;;;;;;6290141;22;19931;-95
2022/01/16 03:22:48;;;;;;;;;;;;;;;;;;6290593;22;19938;-96
2022/01/16 03:25:16;;;;;;;;;;;;;;;;;;6290365;22;19926;-95
2022/01/16 03:27:42;;;;;;;;;;;;;;;;;;6289787;22;19923;-96
2022/01/16 03:30:10;;;;;;;;;;;;;;;;;;6291049;22;19926;-96
2022/01/16 03:32:37;;;;;;;;;;;;;;;;;;6295898;22;19930;-94
2022/01/16 03:35:03;;;;;;;;;;;;;;;;;;6292238;22;19927;-95
2022/01/16 03:37:29;;;;;;;;;;;;;;;;;;6291146;22;19919;-96
2022/01/16 03:39:56;;;;;;;;;;;;;;;;;;6291016;22;19926;-96
2022/01/16 03:42:27;;;;;;;;;;;;;;;;;;6292879;22;19919;-96
2022/01/16 03:44:53;;;;;;;;;;;;;;;;;;6292555;22;19923;-96
2022/01/16 03:47:19;;;;;;;;;;;;;;;;;;6290832;22;19959;-96
2022/01/16 03:49:46;;;;;;;;;;;;;;;;;;6289529;22;19966;-96
2022/01/16 03:52:13;;;;;;;;;;;;;;;;;;6290993;22;19990;-96
2022/01/16 03:54:39;;;;;;;;;;;;;;;;;;6289356;22;19919;-96
2022/01/16 03:57:06;;;;;;;;;;;;;;;;;;6290473;22;19926;-95
2022/01/16 03:59:33;;;;;;;;;;;;;;;;;;6290125;22;20242;-95
2022/01/16 04:02:00;;;;;;;;;;;;;;;;;;6290027;22;19919;-96
2022/01/16 04:04:26;;;;;;;;;;;;;;;;;;6289941;22;19939;-96
2022/01/16 04:06:53;;;;;;;;;;;;;;;;;;6288708;22;19923;-96
2022/01/16 04:09:19;;;;;;;;;;;;;;;;;;6289212;22;19946;-96
2022/01/16 08:45:37;;;;;;;;;;;;;;;;;;6246369;22;20251;-96
2022/01/16 09:04:02;;;;;;;;;;;;;;;;;;6260513;22;19939;-96
2022/01/16 09:06:28;;;;;;;;;;;;;;;;;;6269819;22;19923;-96
2022/01/16 09:09:00;;;;;;;;;;;;;;;;;;6296391;22;19919;-96
2022/01/16 09:11:27;;;;;;;;;;;;;;;;;;6301270;22;19919;-96
2022/01/16 09:13:54;;;;;;;;;;;;;;;;;;6297318;22;19907;-96
2022/01/16 09:21:46;;;;;;;;;;;;;;;;;;6277124;22;19943;-96
2022/01/16 09:26:54;;;;;;;;;;;;;;;;;;6289427;22;19925;-96
2022/01/16 09:29:31;;;;;;;;;;;;;;;;;;6291112;22;19915;-96
2022/01/16 09:31:57;;;;;;;;;;;;;;;;;;6294993;22;19919;-96
2022/01/16 09:34:26;;;;;;;;;;;;;;;;;;6295888;22;19959;-96
2022/01/16 09:36:53;;;;;;;;;;;;;;;;;;6294157;22;19920;-96
2022/01/16 09:39:34;;;;;;;;;;;;;;;;;;6276910;22;19910;-96
2022/01/16 09:42:00;;;;;;;;;;;;;;;;;;6294095;22;20268;-96
2022/01/16 09:44:27;;;;;;;;;;;;;;;;;;6295521;22;19919;-96
2022/01/16 09:49:41;;;;;;;;;;;;;;;;;;6291944;22;19923;-96
2022/01/16 09:52:10;;;;;;;;;;;;;;;;;;6296017;22;19926;-96
2022/01/16 10:10:18;;;;;;;;;;;;;;;;;;6250811;22;19922;-96
2022/01/16 10:12:50;;;;;;;;;;;;;;;;;;6302410;22;19920;-96
2022/01/16 10:15:17;;;;;;;;;;;;;;;;;;6302063;22;19903;-96
2022/01/16 10:17:46;;;;;;;;;;;;;;;;;;6298156;22;19907;-96
2022/01/16 10:20:14;;;;;;;;;;;;;;;;;;6297089;22;19942;-96
2022/01/16 10:22:40;;;;;;;;;;;;;;;;;;6304329;22;19903;-96
2022/01/16 10:25:14;;;;;;;;;;;;;;;;;;6299428;22;19920;-96
2022/01/16 10:30:17;;;;;;;;;;;;;;;;;;6190664;23;19920;-96
2022/01/16 10:32:47;;;;;;;;;;;;;;;;;;6209035;23;19990;-96
2022/01/16 10:35:14;;;;;;;;;;;;;;;;;;6199866;23;19920;-95
2022/01/16 10:37:40;;;;;;;;;;;;;;;;;;6195090;23;19924;-96
2022/01/16 10:40:09;;;;;;;;;;;;;;;;;;6208058;22;19905;-96
2022/01/16 10:42:37;;;;;;;;;;;;;;;;;;6241538;23;19919;-96
2022/01/16 11:16:23;;;;;;;;;;;;;;;;;;6168095;23;19931;31
2022/01/16 11:18:54;;;;;;;;;;;;;;;;;;6185774;23;19914;-96
2022/01/16 11:21:32;;;;;;;;;;;;;;;;;;6203255;23;19924;-96
2022/01/16 11:24:25;;;;;;;;;;;;;;;;;;6185584;23;19920;-96
2022/01/16 11:26:51;;;;;;;;;;;;;;;;;;6171091;23;19927;-96
2022/01/16 11:29:18;;;;;;;;;;;;;;;;;;6167988;23;19952;-95
2022/01/16 11:31:44;;;;;;;;;;;;;;;;;;6166985;23;19921;-96
2022/01/16 11:34:11;;;;;;;;;;;;;;;;;;6170170;23;19921;-96
2022/01/16 11:36:37;;;;;;;;;;;;;;;;;;6170314;23;19921;-96
2022/01/16 11:39:03;;;;;;;;;;;;;;;;;;6168595;23;19965;-96
2022/01/16 11:41:32;;;;;;;;;;;;;;;;;;6168473;23;19927;-96
2022/01/16 11:43:58;;;;;;;;;;;;;;;;;;6171485;23;19924;-96
2022/01/16 11:46:24;;;;;;;;;;;;;;;;;;6169203;23;19986;-96
2022/01/16 11:48:53;;;;;;;;;;;;;;;;;;6167635;23;19921;-96
2022/01/16 11:51:19;;;;;;;;;;;;;;;;;;6170783;23;19948;-96
2022/01/16 11:53:46;;;;;;;;;;;;;;;;;;6168241;23;19927;-96
2022/01/16 11:56:12;;;;;;;;;;;;;;;;;;6162665;23;19936;-96
2022/01/16 11:58:39;;;;;;;;;;;;;;;;;;6168687;23;19920;-96
2022/01/16 12:01:05;;;;;;;;;;;;;;;;;;6167604;23;19920;-96
2022/01/16 12:03:31;;;;;;;;;;;;;;;;;;6172324;23;19921;-96
2022/01/16 12:05:58;;;;;;;;;;;;;;;;;;6149132;23;19921;-96
2022/01/16 12:08:30;;;;;;;;;;;;;;;;;;6173874;23;19944;-96
2022/01/16 12:10:58;;;;;;;;;;;;;;;;;;6176357;23;19968;-96
2022/01/16 12:13:24;;;;;;;;;;;;;;;;;;6171977;23;19964;-96
2022/01/16 12:15:51;;;;;;;;;;;;;;;;;;6170569;23;19927;-96
2022/01/16 12:18:19;;;;;;;;;;;;;;;;;;6171390;23;19920;-96
2022/01/16 12:23:33;;;;;;;;;;;;;;;;;;6237938;23;19963;-96
2022/01/16 12:25:59;;;;;;;;;;;;;;;;;;6236660;23;19920;-96
2022/01/16 12:28:26;;;;;;;;;;;;;;;;;;6235243;23;19904;-96
2022/01/16 12:30:55;;;;;;;;;;;;;;;;;;6235185;23;19920;-96
2022/01/16 12:33:25;;;;;;;;;;;;;;;;;;6234251;23;19962;-96
2022/01/16 12:35:51;;;;;;;;;;;;;;;;;;6234634;23;19916;-96
2022/01/16 12:38:18;;;;;;;;;;;;;;;;;;6228158;23;19939;-96
2022/01/16 12:43:47;;;;;;;;;;;;;;;;;;6195868;22;19927;-96
2022/01/16 12:48:57;;;;;;;;;;;;;;;;;;6195259;23;19911;-96
2022/01/16 13:07:28;;;;;;;;;;;;;;;;;;6177241;23;19927;-95
2022/01/16 13:09:57;;;;;;;;;;;;;;;;;;6166284;23;19936;-96
2022/01/16 13:12:24;;;;;;;;;;;;;;;;;;6175975;23;19909;-96
2022/01/16 13:14:50;;;;;;;;;;;;;;;;;;6177078;23;19940;-96
2022/01/16 13:17:17;;;;;;;;;;;;;;;;;;6167299;23;19920;-96
2022/01/16 13:19:50;;;;;;;;;;;;;;;;;;6168761;23;19931;-96
2022/01/16 13:22:23;;;;;;;;;;;;;;;;;;6172744;23;19943;-96
2022/01/16 13:24:52;;;;;;;;;;;;;;;;;;6199144;23;19920;-96
2022/01/16 13:27:38;;;;;;;;;;;;;;;;;;6171421;23;19957;-96
2022/01/16 13:30:05;;;;;;;;;;;;;;;;;;6173802;23;19932;-96
2022/01/16 13:32:31;;;;;;;;;;;;;;;;;;6166439;23;19922;-96
2022/01/16 13:34:58;;;;;;;;;;;;;;;;;;6170809;23;19908;-96
2022/01/16 13:37:26;;;;;;;;;;;;;;;;;;6166918;23;19921;-96
2022/01/16 13:39:52;;;;;;;;;;;;;;;;;;6167116;23;20011;-95
2022/01/16 13:42:19;;;;;;;;;;;;;;;;;;6162183;23;19931;-96
2022/01/16 13:44:59;;;;;;;;;;;;;;;;;;6167831;23;19932;-96
2022/01/16 13:47:26;;;;;;;;;;;;;;;;;;6164644;23;19960;-96
2022/01/16 13:49:52;;;;;;;;;;;;;;;;;;6157784;23;19927;-96
2022/01/16 13:52:19;;;;;;;;;;;;;;;;;;6155389;23;20035;-96
2022/01/16 13:54:47;;;;;;;;;;;;;;;;;;6155051;23;19924;-96
2022/01/16 13:57:14;;;;;;;;;;;;;;;;;;6167559;23;19943;-96
2022/01/16 13:59:41;;;;;;;;;;;;;;;;;;6166328;23;19955;-96
2022/01/16 14:02:16;;;;;;;;;;;;;;;;;;6168365;23;19908;-96
2022/01/16 14:04:43;;;;;;;;;;;;;;;;;;6171615;23;19940;-96
2022/01/16 14:07:10;;;;;;;;;;;;;;;;;;6174754;23;20063;-96
2022/01/16 14:09:37;;;;;;;;;;;;;;;;;;6176096;23;19924;-96
2022/01/16 14:12:03;;;;;;;;;;;;;;;;;;6202783;23;19932;-96
2022/01/16 14:14:31;;;;;;;;;;;;;;;;;;6201002;23;19920;-96
2022/01/16 14:17:39;;;;;;;;;;;;;;;;;;6203785;23;19963;-96
2022/01/16 14:20:23;;;;;;;;;;;;;;;;;;6200265;23;19951;-96
2022/01/16 14:22:49;;;;;;;;;;;;;;;;;;6196680;23;19948;-96
2022/01/16 14:25:15;;;;;;;;;;;;;;;;;;6196079;23;19967;-96
2022/01/16 14:27:44;;;;;;;;;;;;;;;;;;6200176;23;19960;-96
2022/01/16 14:30:13;;;;;;;;;;;;;;;;;;6177062;23;19904;-96
2022/01/16 14:32:39;;;;;;;;;;;;;;;;;;6201331;23;19921;-95
2022/01/16 14:35:05;;;;;;;;;;;;;;;;;;6201415;23;19944;-96
2022/01/16 14:37:32;;;;;;;;;;;;;;;;;;6201030;23;19926;-96
2022/01/16 14:40:00;;;;;;;;;;;;;;;;;;6201584;23;19920;-96
2022/01/16 14:42:37;;;;;;;;;;;;;;;;;;6196995;23;19920;-96
2022/01/16 14:45:03;;;;;;;;;;;;;;;;;;6196459;23;19955;-96
2022/01/16 14:47:30;;;;;;;;;;;;;;;;;;6195459;23;19921;-95
2022/01/16 14:49:57;;;;;;;;;;;;;;;;;;6194418;23;19927;-95
2022/01/16 14:52:23;;;;;;;;;;;;;;;;;;6193394;23;19929;-95
2022/01/16 14:54:49;;;;;;;;;;;;;;;;;;6194622;23;19920;-96
2022/01/16 14:57:16;;;;;;;;;;;;;;;;;;6198763;23;20243;-96
2022/01/16 14:59:42;;;;;;;;;;;;;;;;;;6207137;23;19924;-96
2022/01/16 15:02:09;;;;;;;;;;;;;;;;;;6204533;23;20299;-95
2022/01/16 15:04:35;;;;;;;;;;;;;;;;;;6197264;23;19930;-94
2022/01/16 15:07:01;;;;;;;;;;;;;;;;;;6195857;23;19920;-96
2022/01/16 15:09:28;;;;;;;;;;;;;;;;;;6196485;23;19920;-92
2022/01/16 15:11:54;;;;;;;;;;;;;;;;;;6194420;23;19952;-95
2022/01/16 15:14:20;;;;;;;;;;;;;;;;;;6194043;23;19948;-96
2022/01/16 15:16:49;;;;;;;;;;;;;;;;;;6192809;23;19943;-95
2022/01/16 15:19:17;;;;;;;;;;;;;;;;;;6190632;23;19924;-94
2022/01/16 15:21:48;;;;;;;;;;;;;;;;;;6194020;23;19924;-96
2022/01/16 15:24:14;;;;;;;;;;;;;;;;;;6190123;23;19921;-93
2022/01/16 15:26:40;;;;;;;;;;;;;;;;;;6193934;23;19920;-93
2022/01/16 15:29:08;;;;;;;;;;;;;;;;;;6195201;23;19924;-93
2022/01/16 15:31:34;;;;;;;;;;;;;;;;;;6194802;23;19928;-93
2022/01/16 15:34:00;;;;;;;;;;;;;;;;;;6192285;23;19971;-94
2022/01/16 15:36:28;;;;;;;;;;;;;;;;;;6193174;23;19924;-94
2022/01/16 15:38:54;;;;;;;;;;;;;;;;;;6195318;23;19920;-96
2022/01/16 15:41:21;;;;;;;;;;;;;;;;;;6170265;23;19932;-96
2022/01/16 15:43:47;;;;;;;;;;;;;;;;;;6195290;23;19930;-95
2022/01/16 15:46:13;;;;;;;;;;;;;;;;;;6197490;23;19928;-92
2022/01/16 15:48:39;;;;;;;;;;;;;;;;;;6194884;23;19924;-92
2022/01/16 15:51:06;;;;;;;;;;;;;;;;;;6194324;23;19995;-92
2022/01/16 15:53:32;;;;;;;;;;;;;;;;;;6194453;23;19983;-94
2022/01/16 15:55:58;;;;;;;;;;;;;;;;;;6194922;23;19944;-92
2022/01/16 15:58:24;;;;;;;;;;;;;;;;;;6195463;23;19920;-93
2022/01/16 16:00:51;;;;;;;;;;;;;;;;;;6195247;23;19948;-94
2022/01/16 16:03:17;;;;;;;;;;;;;;;;;;6196301;23;19948;-94
2022/01/16 16:05:44;;;;;;;;;;;;;;;;;;6195968;23;20290;-94
2022/01/16 16:08:10;;;;;;;;;;;;;;;;;;6195427;23;19921;-95
2022/01/16 16:10:36;;;;;;;;;;;;;;;;;;6194348;23;20386;-96
2022/01/16 16:13:03;;;;;;;;;;;;;;;;;;6195273;23;19928;-94
2022/01/16 16:15:29;;;;;;;;;;;;;;;;;;6195215;23;20006;-96
2022/01/16 16:17:55;;;;;;;;;;;;;;;;;;6195021;23;19925;-96
2022/01/16 16:20:22;;;;;;;;;;;;;;;;;;6195641;23;19924;-96
2022/01/16 16:22:48;;;;;;;;;;;;;;;;;;6196318;23;19947;-96
2022/01/16 16:25:17;;;;;;;;;;;;;;;;;;6196197;23;20401;-96
2022/01/16 16:27:43;;;;;;;;;;;;;;;;;;6195950;23;19928;-95
2022/01/16 16:30:09;;;;;;;;;;;;;;;;;;6195105;23;19924;-94
2022/01/16 16:32:35;;;;;;;;;;;;;;;;;;6196106;23;19920;-96
2022/01/16 16:35:02;;;;;;;;;;;;;;;;;;6195081;23;19921;-96
2022/01/16 16:37:28;;;;;;;;;;;;;;;;;;6193658;23;19924;-95
2022/01/16 16:39:54;;;;;;;;;;;;;;;;;;6194421;23;19967;-96
2022/01/16 16:42:20;;;;;;;;;;;;;;;;;;6194612;23;19920;-94
2022/01/16 16:44:47;;;;;;;;;;;;;;;;;;6195557;23;19931;-96
2022/01/16 16:47:13;;;;;;;;;;;;;;;;;;6196588;23;19920;-96
2022/01/16 16:49:42;;;;;;;;;;;;;;;;;;6180215;23;19920;-96
2022/01/16 16:52:09;;;;;;;;;;;;;;;;;;6195755;23;19920;-96
2022/01/16 16:54:36;;;;;;;;;;;;;;;;;;6195839;23;19947;-96
2022/01/16 16:57:02;;;;;;;;;;;;;;;;;;6194612;23;19940;-96
2022/01/16 16:59:28;;;;;;;;;;;;;;;;;;6196864;23;19948;-96
2022/01/16 17:01:55;;;;;;;;;;;;;;;;;;6196656;23;19920;-96
2022/01/16 17:04:21;;;;;;;;;;;;;;;;;;6167983;23;19927;-96
2022/01/16 17:06:47;;;;;;;;;;;;;;;;;;6196128;23;19924;-96
2022/01/16 17:09:14;;;;;;;;;;;;;;;;;;6193205;23;19936;-94
2022/01/16 17:11:41;;;;;;;;;;;;;;;;;;6194455;23;19947;-93
2022/01/16 17:14:07;;;;;;;;;;;;;;;;;;6199626;23;19928;-95
2022/01/16 17:16:33;;;;;;;;;;;;;;;;;;6194921;23;19951;-94
2022/01/16 17:19:05;;;;;;;;;;;;;;;;;;6193020;23;19943;-93
2022/01/16 17:21:32;;;;;;;;;;;;;;;;;;6192904;23;19930;-95
2022/01/16 17:23:58;;;;;;;;;;;;;;;;;;6193409;23;19979;-96
2022/01/16 17:26:24;;;;;;;;;;;;;;;;;;6193991;23;19924;-96
2022/01/16 17:28:51;;;;;;;;;;;;;;;;;;6195152;23;19944;-95
2022/01/16 17:31:17;;;;;;;;;;;;;;;;;;6193963;23;19924;-94
2022/01/16 17:33:43;;;;;;;;;;;;;;;;;;6193361;23;20461;-94
2022/01/16 17:36:09;;;;;;;;;;;;;;;;;;6193491;23;20299;-95
2022/01/16 17:38:36;;;;;;;;;;;;;;;;;;6194262;23;19931;-94
2022/01/16 17:41:02;;;;;;;;;;;;;;;;;;6194234;23;19970;-94
2022/01/16 17:43:28;;;;;;;;;;;;;;;;;;6195016;23;19925;-95
2022/01/16 17:45:55;;;;;;;;;;;;;;;;;;6195308;23;19939;-94
2022/01/16 17:48:24;;;;;;;;;;;;;;;;;;6193374;23;19920;-95
2022/01/16 17:50:50;;;;;;;;;;;;;;;;;;6193957;23;19995;-95
2022/01/16 17:53:17;;;;;;;;;;;;;;;;;;6193428;23;19967;-95
2022/01/16 17:55:45;;;;;;;;;;;;;;;;;;6193353;23;20094;-96
2022/01/16 17:58:13;;;;;;;;;;;;;;;;;;6196729;23;19920;-96
2022/01/16 18:00:40;;;;;;;;;;;;;;;;;;6195784;23;19960;-96
2022/01/16 18:03:06;;;;;;;;;;;;;;;;;;6197164;23;19920;-96
2022/01/16 18:05:32;;;;;;;;;;;;;;;;;;6195950;23;19920;-96
2022/01/16 18:23:54;;;;;;;;;;;;;;;;;;6196377;23;19920;-96
2022/01/16 18:34:20;;;;;;;;;;;;;;;;;;6241169;23;19920;-96
2022/01/16 18:47:32;;;;;;;;;;;;;;;;;;6273272;23;19926;-96
2022/01/16 18:49:59;;;;;;;;;;;;;;;;;;6265640;23;19904;-96
2022/01/16 18:52:26;;;;;;;;;;;;;;;;;;6268074;23;19914;-96
2022/01/16 18:54:52;;;;;;;;;;;;;;;;;;6259691;23;19926;-96
2022/01/16 18:57:20;;;;;;;;;;;;;;;;;;6271443;22;19908;-96
2022/01/16 18:59:48;;;;;;;;;;;;;;;;;;6268035;23;19939;-96
2022/01/16 19:02:15;;;;;;;;;;;;;;;;;;6268430;23;19915;-96
2022/01/16 19:04:43;;;;;;;;;;;;;;;;;;6265198;23;19922;-96
2022/01/16 19:09:39;;;;;;;;;;;;;;;;;;6188403;23;19920;-96
2022/01/16 19:12:08;;;;;;;;;;;;;;;;;;6179087;23;19940;-96
2022/01/16 19:14:34;;;;;;;;;;;;;;;;;;6176429;23;19921;-96
2022/01/16 19:17:02;;;;;;;;;;;;;;;;;;6180325;23;19951;-96
2022/01/16 19:19:45;;;;;;;;;;;;;;;;;;6179932;23;19904;-96
2022/01/16 19:22:13;;;;;;;;;;;;;;;;;;6178039;23;19920;-96
2022/01/16 19:24:53;;;;;;;;;;;;;;;;;;6177792;23;19920;-96
2022/01/16 19:27:28;;;;;;;;;;;;;;;;;;6155824;23;19919;-96
2022/01/16 19:35:06;;;;;;;;;;;;;;;;;;6271785;23;19919;-96
2022/01/16 20:01:37;;;;;;;;;;;;;;;;;;6172927;23;19928;-96
2022/01/16 20:30:31;;;;;;;;;;;;;;;;;;6153060;23;19927;-96
2022/01/16 21:04:12;;;;;;;;;;;;;;;;;;6106424;23;20296;-96
2022/01/16 21:06:43;;;;;;;;;;;;;;;;;;6176729;23;19924;-96
2022/01/16 21:09:11;;;;;;;;;;;;;;;;;;6169687;23;19944;-95
2022/01/16 21:11:37;;;;;;;;;;;;;;;;;;6168203;23;19925;-96
2022/01/16 21:14:05;;;;;;;;;;;;;;;;;;6170811;23;19908;-96
2022/01/16 21:16:32;;;;;;;;;;;;;;;;;;6175947;23;19927;-96
2022/01/16 21:18:58;;;;;;;;;;;;;;;;;;6166890;23;19920;-95
2022/01/16 21:21:25;;;;;;;;;;;;;;;;;;6166133;23;19928;-96
2022/01/16 21:23:51;;;;;;;;;;;;;;;;;;6169173;23;19927;-96
2022/01/16 22:15:37;;;;;;;;;;;;;;;;;;6208009;23;19920;-96
2022/01/16 22:20:55;;;;;;;;;;;;;;;;;;6119648;23;19928;-96
2022/01/16 22:23:22;;;;;;;;;;;;;;;;;;6187007;23;19931;-96
2022/01/16 22:25:48;;;;;;;;;;;;;;;;;;6192464;23;19920;-96
2022/01/16 22:28:15;;;;;;;;;;;;;;;;;;6194051;23;19943;-96
2022/01/16 22:30:41;;;;;;;;;;;;;;;;;;6201402;23;19967;-96
2022/01/16 22:33:08;;;;;;;;;;;;;;;;;;6202905;23;19920;-96
2022/01/16 22:35:34;;;;;;;;;;;;;;;;;;6197853;23;19995;-96
2022/01/16 22:38:00;;;;;;;;;;;;;;;;;;6197319;23;19924;-96
2022/01/16 22:40:27;;;;;;;;;;;;;;;;;;6201652;23;19931;-96
2022/01/16 22:42:54;;;;;;;;;;;;;;;;;;6204071;23;19920;-96
2022/01/16 22:45:20;;;;;;;;;;;;;;;;;;6204105;23;19939;-96
2022/01/16 22:50:27;;;;;;;;;;;;;;;;;;6185125;23;19967;-96
2022/01/16 22:52:55;;;;;;;;;;;;;;;;;;6202706;23;19972;-96
2022/01/16 22:55:22;;;;;;;;;;;;;;;;;;6200970;23;19946;-96
2022/01/16 22:57:48;;;;;;;;;;;;;;;;;;6199925;23;19920;-96
2022/01/16 23:00:15;;;;;;;;;;;;;;;;;;6201607;23;19968;-96
2022/01/16 23:02:41;;;;;;;;;;;;;;;;;;6200610;23;19954;-96
2022/01/16 23:05:12;;;;;;;;;;;;;;;;;;6201107;23;19920;-96
2022/01/16 23:07:38;;;;;;;;;;;;;;;;;;6203594;23;19927;-96
2022/01/16 23:10:05;;;;;;;;;;;;;;;;;;6200415;23;19965;-96
2022/01/16 23:12:31;;;;;;;;;;;;;;;;;;6199034;23;19924;-96
2022/01/16 23:14:57;;;;;;;;;;;;;;;;;;6197321;23;19930;-95
2022/01/16 23:17:24;;;;;;;;;;;;;;;;;;6196709;23;19947;-96
2022/01/16 23:19:50;;;;;;;;;;;;;;;;;;6197659;23;19967;-96
2022/01/16 23:22:22;;;;;;;;;;;;;;;;;;6198113;23;19920;-96
2022/01/16 23:24:48;;;;;;;;;;;;;;;;;;6199054;23;19924;-96
2022/01/16 23:27:15;;;;;;;;;;;;;;;;;;6198730;23;19926;-96
2022/01/16 23:29:41;;;;;;;;;;;;;;;;;;6198646;23;19954;-96
2022/01/16 23:32:07;;;;;;;;;;;;;;;;;;6198859;23;19960;-96
2022/01/16 23:34:34;;;;;;;;;;;;;;;;;;6200333;23;19925;-96
2022/01/16 23:37:01;;;;;;;;;;;;;;;;;;6200517;23;19921;-96
2022/01/16 23:39:27;;;;;;;;;;;;;;;;;;6199677;23;19920;-96
2022/01/16 23:41:54;;;;;;;;;;;;;;;;;;6200273;23;19926;-96
2022/01/16 23:44:24;;;;;;;;;;;;;;;;;;6198801;23;19920;-96
2022/01/16 23:46:52;;;;;;;;;;;;;;;;;;6198832;23;19936;-96
2022/01/16 23:49:18;;;;;;;;;;;;;;;;;;6199879;23;19920;-96
2022/01/16 23:51:45;;;;;;;;;;;;;;;;;;6199934;23;19926;-96
2022/01/16 23:54:11;;;;;;;;;;;;;;;;;;6198690;23;19927;-96
2022/01/16 23:56:37;;;;;;;;;;;;;;;;;;6199212;23;19920;-96
2022/01/16 23:59:04;;;;;;;;;;;;;;;;;;6198837;23;19924;-96
